sensor_id;sensor_type;location;lat;lon;timestamp;temperature;humidity
52030;DHT22;38043;53.224;6.580;2023-05-07T00:02:20;11.60;99.90
52030;DHT22;38043;53.224;6.580;2023-05-07T00:04:46;11.50;99.90
52030;DHT22;38043;53.224;6.580;2023-05-07T00:07:11;11.50;99.90
52030;DHT22;38043;53.224;6.580;2023-05-07T00:09:37;11.40;99.90
52030;DHT22;38043;53.224;6.580;2023-05-07T00:12:02;11.30;99.90
52030;DHT22;38043;53.224;6.580;2023-05-07T00:14:28;11.40;99.90
52030;DHT22;38043;53.224;6.580;2023-05-07T00:16:54;11.50;99.90
52030;DHT22;38043;53.224;6.580;2023-05-07T00:19:20;11.40;99.90
52030;DHT22;38043;53.224;6.580;2023-05-07T00:21:46;11.40;99.90
52030;DHT22;38043;53.224;6.580;2023-05-07T00:24:12;11.30;99.90
52030;DHT22;38043;53.224;6.580;2023-05-07T00:26:37;11.30;99.90
52030;DHT22;38043;53.224;6.580;2023-05-07T00:29:03;11.30;99.90
52030;DHT22;38043;53.224;6.580;2023-05-07T00:31:28;11.20;99.90
52030;DHT22;38043;53.224;6.580;2023-05-07T00:33:54;11.20;99.90
52030;DHT22;38043;53.224;6.580;2023-05-07T00:36:19;11.20;99.90
52030;DHT22;38043;53.224;6.580;2023-05-07T00:38:45;11.20;99.90
52030;DHT22;38043;53.224;6.580;2023-05-07T00:41:10;11.30;99.90
52030;DHT22;38043;53.224;6.580;2023-05-07T00:43:36;11.20;99.90
52030;DHT22;38043;53.224;6.580;2023-05-07T00:46:01;11.20;99.90
52030;DHT22;38043;53.224;6.580;2023-05-07T00:48:27;11.20;99.90
52030;DHT22;38043;53.224;6.580;2023-05-07T00:50:52;11.10;99.90
52030;DHT22;38043;53.224;6.580;2023-05-07T00:53:18;11.10;99.90
52030;DHT22;38043;53.224;6.580;2023-05-07T00:55:44;11.10;99.90
52030;DHT22;38043;53.224;6.580;2023-05-07T00:58:09;11.10;99.90
52030;DHT22;38043;53.224;6.580;2023-05-07T01:00:35;11.10;99.90
52030;DHT22;38043;53.224;6.580;2023-05-07T01:03:01;11.10;99.90
52030;DHT22;38043;53.224;6.580;2023-05-07T01:05:26;11.10;99.90
52030;DHT22;38043;53.224;6.580;2023-05-07T01:07:53;11.10;99.90
52030;DHT22;38043;53.224;6.580;2023-05-07T01:10:19;11.10;99.90
52030;DHT22;38043;53.224;6.580;2023-05-07T01:12:45;11.10;99.90
52030;DHT22;38043;53.224;6.580;2023-05-07T01:15:12;11.10;99.90
52030;DHT22;38043;53.224;6.580;2023-05-07T01:17:38;11.00;99.90
52030;DHT22;38043;53.224;6.580;2023-05-07T01:20:05;11.10;99.90
52030;DHT22;38043;53.224;6.580;2023-05-07T01:22:31;11.10;99.90
52030;DHT22;38043;53.224;6.580;2023-05-07T01:24:58;11.10;99.90
52030;DHT22;38043;53.224;6.580;2023-05-07T01:27:25;11.10;99.90
52030;DHT22;38043;53.224;6.580;2023-05-07T01:29:50;11.00;99.90
52030;DHT22;38043;53.224;6.580;2023-05-07T01:32:16;11.10;99.90
52030;DHT22;38043;53.224;6.580;2023-05-07T01:34:44;11.00;99.90
52030;DHT22;38043;53.224;6.580;2023-05-07T01:37:10;11.00;99.90
52030;DHT22;38043;53.224;6.580;2023-05-07T01:39:37;11.00;99.90
52030;DHT22;38043;53.224;6.580;2023-05-07T01:42:04;11.00;99.90
52030;DHT22;38043;53.224;6.580;2023-05-07T01:44:30;11.00;99.90
52030;DHT22;38043;53.224;6.580;2023-05-07T01:46:55;11.00;99.90
52030;DHT22;38043;53.224;6.580;2023-05-07T01:49:22;11.00;99.90
52030;DHT22;38043;53.224;6.580;2023-05-07T01:51:47;11.00;99.90
52030;DHT22;38043;53.224;6.580;2023-05-07T01:54:13;10.90;99.90
52030;DHT22;38043;53.224;6.580;2023-05-07T01:56:39;10.90;99.90
52030;DHT22;38043;53.224;6.580;2023-05-07T01:59:05;10.90;99.90
52030;DHT22;38043;53.224;6.580;2023-05-07T02:01:31;10.90;99.90
52030;DHT22;38043;53.224;6.580;2023-05-07T02:03:56;10.90;99.90
52030;DHT22;38043;53.224;6.580;2023-05-07T02:06:22;10.90;99.90
52030;DHT22;38043;53.224;6.580;2023-05-07T02:08:47;10.90;99.90
52030;DHT22;38043;53.224;6.580;2023-05-07T02:11:13;10.90;99.90
52030;DHT22;38043;53.224;6.580;2023-05-07T02:13:38;10.90;99.90
52030;DHT22;38043;53.224;6.580;2023-05-07T02:16:04;10.90;99.90
52030;DHT22;38043;53.224;6.580;2023-05-07T02:18:29;10.90;99.90
52030;DHT22;38043;53.224;6.580;2023-05-07T02:20:55;10.90;99.90
52030;DHT22;38043;53.224;6.580;2023-05-07T02:23:21;10.80;99.90
52030;DHT22;38043;53.224;6.580;2023-05-07T02:25:46;10.80;99.90
52030;DHT22;38043;53.224;6.580;2023-05-07T02:28:12;10.80;99.90
52030;DHT22;38043;53.224;6.580;2023-05-07T02:30:38;10.80;99.90
52030;DHT22;38043;53.224;6.580;2023-05-07T02:33:03;10.80;99.90
52030;DHT22;38043;53.224;6.580;2023-05-07T02:35:29;10.70;99.90
52030;DHT22;38043;53.224;6.580;2023-05-07T02:37:55;10.80;99.90
52030;DHT22;38043;53.224;6.580;2023-05-07T02:40:20;10.80;99.90
52030;DHT22;38043;53.224;6.580;2023-05-07T02:42:46;10.80;99.90
52030;DHT22;38043;53.224;6.580;2023-05-07T02:45:11;11.00;99.90
52030;DHT22;38043;53.224;6.580;2023-05-07T02:47:37;10.80;99.90
52030;DHT22;38043;53.224;6.580;2023-05-07T02:50:02;10.80;99.90
52030;DHT22;38043;53.224;6.580;2023-05-07T02:52:29;10.80;99.90
52030;DHT22;38043;53.224;6.580;2023-05-07T02:54:54;10.80;99.90
52030;DHT22;38043;53.224;6.580;2023-05-07T02:57:20;10.80;99.90
52030;DHT22;38043;53.224;6.580;2023-05-07T02:59:45;10.80;99.90
52030;DHT22;38043;53.224;6.580;2023-05-07T03:02:11;10.80;99.90
52030;DHT22;38043;53.224;6.580;2023-05-07T03:04:36;10.80;99.90
52030;DHT22;38043;53.224;6.580;2023-05-07T03:07:02;10.80;99.90
52030;DHT22;38043;53.224;6.580;2023-05-07T03:09:27;10.80;99.90
52030;DHT22;38043;53.224;6.580;2023-05-07T03:11:53;10.60;99.90
52030;DHT22;38043;53.224;6.580;2023-05-07T03:14:18;10.70;99.90
52030;DHT22;38043;53.224;6.580;2023-05-07T03:16:44;10.80;99.90
52030;DHT22;38043;53.224;6.580;2023-05-07T03:19:09;10.70;99.90
52030;DHT22;38043;53.224;6.580;2023-05-07T03:21:35;11.70;99.90
52030;DHT22;38043;53.224;6.580;2023-05-07T03:24:00;10.70;99.90
52030;DHT22;38043;53.224;6.580;2023-05-07T03:26:26;10.60;99.90
52030;DHT22;38043;53.224;6.580;2023-05-07T03:28:51;10.70;99.90
52030;DHT22;38043;53.224;6.580;2023-05-07T03:31:17;10.60;99.90
52030;DHT22;38043;53.224;6.580;2023-05-07T03:33:49;10.60;99.90
52030;DHT22;38043;53.224;6.580;2023-05-07T03:36:15;10.60;99.90
52030;DHT22;38043;53.224;6.580;2023-05-07T03:38:41;10.60;99.90
52030;DHT22;38043;53.224;6.580;2023-05-07T03:41:06;10.60;99.90
52030;DHT22;38043;53.224;6.580;2023-05-07T03:43:32;10.60;99.90
52030;DHT22;38043;53.224;6.580;2023-05-07T03:45:57;10.60;99.90
52030;DHT22;38043;53.224;6.580;2023-05-07T03:48:23;10.50;99.90
52030;DHT22;38043;53.224;6.580;2023-05-07T03:50:48;10.50;99.90
52030;DHT22;38043;53.224;6.580;2023-05-07T03:53:14;10.50;99.90
52030;DHT22;38043;53.224;6.580;2023-05-07T03:55:39;10.50;99.90
52030;DHT22;38043;53.224;6.580;2023-05-07T03:58:05;10.40;99.90
52030;DHT22;38043;53.224;6.580;2023-05-07T04:00:30;10.50;99.90
52030;DHT22;38043;53.224;6.580;2023-05-07T04:03:01;10.50;99.90
52030;DHT22;38043;53.224;6.580;2023-05-07T04:05:27;10.40;99.90
52030;DHT22;38043;53.224;6.580;2023-05-07T04:07:52;10.40;99.90
52030;DHT22;38043;53.224;6.580;2023-05-07T04:10:18;10.40;99.90
52030;DHT22;38043;53.224;6.580;2023-05-07T04:12:43;10.40;99.90
52030;DHT22;38043;53.224;6.580;2023-05-07T04:15:09;10.40;99.90
52030;DHT22;38043;53.224;6.580;2023-05-07T04:17:34;10.40;99.90
52030;DHT22;38043;53.224;6.580;2023-05-07T04:20:00;10.40;99.90
52030;DHT22;38043;53.224;6.580;2023-05-07T04:22:26;10.40;99.90
52030;DHT22;38043;53.224;6.580;2023-05-07T04:24:51;10.40;99.90
52030;DHT22;38043;53.224;6.580;2023-05-07T04:27:17;10.30;99.90
52030;DHT22;38043;53.224;6.580;2023-05-07T04:29:42;10.40;99.90
52030;DHT22;38043;53.224;6.580;2023-05-07T04:32:12;10.30;99.90
52030;DHT22;38043;53.224;6.580;2023-05-07T04:34:38;10.40;99.90
52030;DHT22;38043;53.224;6.580;2023-05-07T04:37:04;10.30;99.90
52030;DHT22;38043;53.224;6.580;2023-05-07T04:39:29;10.30;99.90
52030;DHT22;38043;53.224;6.580;2023-05-07T04:41:55;10.30;99.90
52030;DHT22;38043;53.224;6.580;2023-05-07T04:44:23;10.30;99.90
52030;DHT22;38043;53.224;6.580;2023-05-07T04:46:50;10.30;99.90
52030;DHT22;38043;53.224;6.580;2023-05-07T04:49:15;10.30;99.90
52030;DHT22;38043;53.224;6.580;2023-05-07T04:51:41;10.30;99.90
52030;DHT22;38043;53.224;6.580;2023-05-07T04:54:08;10.30;99.90
52030;DHT22;38043;53.224;6.580;2023-05-07T04:56:33;10.30;99.90
52030;DHT22;38043;53.224;6.580;2023-05-07T04:58:59;10.30;99.90
52030;DHT22;38043;53.224;6.580;2023-05-07T05:01:24;10.30;99.90
52030;DHT22;38043;53.224;6.580;2023-05-07T05:03:50;10.30;99.90
52030;DHT22;38043;53.224;6.580;2023-05-07T05:06:16;10.30;99.90
52030;DHT22;38043;53.224;6.580;2023-05-07T05:08:41;10.30;99.90
52030;DHT22;38043;53.224;6.580;2023-05-07T05:11:07;10.30;99.90
52030;DHT22;38043;53.224;6.580;2023-05-07T05:13:32;10.30;99.90
52030;DHT22;38043;53.224;6.580;2023-05-07T05:15:58;10.30;99.90
52030;DHT22;38043;53.224;6.580;2023-05-07T05:18:23;10.30;99.90
52030;DHT22;38043;53.224;6.580;2023-05-07T05:20:50;10.30;99.90
52030;DHT22;38043;53.224;6.580;2023-05-07T05:23:16;10.30;99.90
52030;DHT22;38043;53.224;6.580;2023-05-07T05:25:42;10.30;99.90
52030;DHT22;38043;53.224;6.580;2023-05-07T05:28:07;10.40;99.90
52030;DHT22;38043;53.224;6.580;2023-05-07T05:30:33;10.60;99.90
52030;DHT22;38043;53.224;6.580;2023-05-07T05:32:58;10.30;99.90
52030;DHT22;38043;53.224;6.580;2023-05-07T05:35:23;10.30;99.90
52030;DHT22;38043;53.224;6.580;2023-05-07T05:37:49;10.30;99.90
52030;DHT22;38043;53.224;6.580;2023-05-07T05:40:15;10.30;99.90
52030;DHT22;38043;53.224;6.580;2023-05-07T05:42:40;10.30;99.90
52030;DHT22;38043;53.224;6.580;2023-05-07T05:45:06;10.30;99.90
52030;DHT22;38043;53.224;6.580;2023-05-07T05:47:31;10.20;99.90
52030;DHT22;38043;53.224;6.580;2023-05-07T05:49:57;10.30;99.90
52030;DHT22;38043;53.224;6.580;2023-05-07T05:52:22;10.30;99.90
52030;DHT22;38043;53.224;6.580;2023-05-07T05:54:49;10.30;99.90
52030;DHT22;38043;53.224;6.580;2023-05-07T05:57:14;10.20;99.90
52030;DHT22;38043;53.224;6.580;2023-05-07T05:59:40;10.20;99.90
52030;DHT22;38043;53.224;6.580;2023-05-07T06:02:05;10.30;99.90
52030;DHT22;38043;53.224;6.580;2023-05-07T06:04:31;10.20;99.90
52030;DHT22;38043;53.224;6.580;2023-05-07T06:06:57;11.40;99.90
52030;DHT22;38043;53.224;6.580;2023-05-07T06:09:22;10.20;99.90
52030;DHT22;38043;53.224;6.580;2023-05-07T06:11:48;10.20;99.90
52030;DHT22;38043;53.224;6.580;2023-05-07T06:14:13;10.20;99.90
52030;DHT22;38043;53.224;6.580;2023-05-07T06:16:39;10.30;99.90
52030;DHT22;38043;53.224;6.580;2023-05-07T06:19:04;10.30;99.90
52030;DHT22;38043;53.224;6.580;2023-05-07T06:21:30;10.30;99.90
52030;DHT22;38043;53.224;6.580;2023-05-07T06:23:56;10.30;99.90
52030;DHT22;38043;53.224;6.580;2023-05-07T06:26:22;10.60;99.90
52030;DHT22;38043;53.224;6.580;2023-05-07T06:28:47;10.40;99.90
52030;DHT22;38043;53.224;6.580;2023-05-07T06:31:17;10.40;99.90
52030;DHT22;38043;53.224;6.580;2023-05-07T06:33:43;10.40;99.90
52030;DHT22;38043;53.224;6.580;2023-05-07T06:36:09;10.50;99.90
52030;DHT22;38043;53.224;6.580;2023-05-07T06:38:35;10.40;99.90
52030;DHT22;38043;53.224;6.580;2023-05-07T06:41:00;10.50;99.90
52030;DHT22;38043;53.224;6.580;2023-05-07T06:43:26;10.40;99.90
52030;DHT22;38043;53.224;6.580;2023-05-07T06:45:51;10.50;99.90
52030;DHT22;38043;53.224;6.580;2023-05-07T06:48:17;10.50;99.90
52030;DHT22;38043;53.224;6.580;2023-05-07T06:50:42;10.60;99.90
52030;DHT22;38043;53.224;6.580;2023-05-07T06:53:08;10.60;99.90
52030;DHT22;38043;53.224;6.580;2023-05-07T06:55:33;10.60;99.90
52030;DHT22;38043;53.224;6.580;2023-05-07T06:57:59;10.60;99.90
52030;DHT22;38043;53.224;6.580;2023-05-07T07:00:29;10.50;99.90
52030;DHT22;38043;53.224;6.580;2023-05-07T07:02:55;10.60;99.90
52030;DHT22;38043;53.224;6.580;2023-05-07T07:05:20;10.60;99.90
52030;DHT22;38043;53.224;6.580;2023-05-07T07:07:46;10.60;99.90
52030;DHT22;38043;53.224;6.580;2023-05-07T07:10:18;10.60;99.90
52030;DHT22;38043;53.224;6.580;2023-05-07T07:12:44;10.60;99.90
52030;DHT22;38043;53.224;6.580;2023-05-07T07:15:10;10.60;99.90
52030;DHT22;38043;53.224;6.580;2023-05-07T07:17:35;10.60;99.90
52030;DHT22;38043;53.224;6.580;2023-05-07T07:20:01;10.50;99.90
52030;DHT22;38043;53.224;6.580;2023-05-07T07:22:28;10.60;99.90
52030;DHT22;38043;53.224;6.580;2023-05-07T07:24:54;10.60;99.90
52030;DHT22;38043;53.224;6.580;2023-05-07T07:27:19;10.50;99.90
52030;DHT22;38043;53.224;6.580;2023-05-07T07:29:45;10.60;99.90
52030;DHT22;38043;53.224;6.580;2023-05-07T07:32:10;10.60;99.90
52030;DHT22;38043;53.224;6.580;2023-05-07T07:34:36;10.60;99.90
52030;DHT22;38043;53.224;6.580;2023-05-07T07:37:01;10.60;99.90
52030;DHT22;38043;53.224;6.580;2023-05-07T07:39:30;10.60;99.90
52030;DHT22;38043;53.224;6.580;2023-05-07T07:41:57;10.60;99.90
52030;DHT22;38043;53.224;6.580;2023-05-07T07:44:22;10.70;99.90
52030;DHT22;38043;53.224;6.580;2023-05-07T07:46:48;10.70;99.90
52030;DHT22;38043;53.224;6.580;2023-05-07T07:49:13;10.70;99.90
52030;DHT22;38043;53.224;6.580;2023-05-07T07:51:39;10.80;99.90
52030;DHT22;38043;53.224;6.580;2023-05-07T07:54:05;10.80;99.90
52030;DHT22;38043;53.224;6.580;2023-05-07T07:56:31;10.80;99.90
52030;DHT22;38043;53.224;6.580;2023-05-07T07:58:57;10.80;99.90
52030;DHT22;38043;53.224;6.580;2023-05-07T08:01:23;10.90;99.90
52030;DHT22;38043;53.224;6.580;2023-05-07T08:03:48;10.90;99.90
52030;DHT22;38043;53.224;6.580;2023-05-07T08:06:14;11.00;99.90
52030;DHT22;38043;53.224;6.580;2023-05-07T08:08:39;11.00;99.90
52030;DHT22;38043;53.224;6.580;2023-05-07T08:11:05;11.10;99.90
52030;DHT22;38043;53.224;6.580;2023-05-07T08:13:30;11.10;99.90
52030;DHT22;38043;53.224;6.580;2023-05-07T08:15:56;11.10;99.90
52030;DHT22;38043;53.224;6.580;2023-05-07T08:18:21;11.10;99.90
52030;DHT22;38043;53.224;6.580;2023-05-07T08:20:48;11.20;99.90
52030;DHT22;38043;53.224;6.580;2023-05-07T08:23:14;11.30;99.90
52030;DHT22;38043;53.224;6.580;2023-05-07T08:25:41;11.40;99.90
52030;DHT22;38043;53.224;6.580;2023-05-07T08:28:08;11.30;99.90
52030;DHT22;38043;53.224;6.580;2023-05-07T08:30:33;11.50;99.90
52030;DHT22;38043;53.224;6.580;2023-05-07T08:32:59;11.50;99.90
52030;DHT22;38043;53.224;6.580;2023-05-07T08:35:25;11.50;99.90
52030;DHT22;38043;53.224;6.580;2023-05-07T08:37:52;11.50;99.90
52030;DHT22;38043;53.224;6.580;2023-05-07T08:40:17;11.50;99.90
52030;DHT22;38043;53.224;6.580;2023-05-07T08:42:43;11.60;99.90
52030;DHT22;38043;53.224;6.580;2023-05-07T08:45:09;11.60;99.90
52030;DHT22;38043;53.224;6.580;2023-05-07T08:47:40;11.70;99.90
52030;DHT22;38043;53.224;6.580;2023-05-07T08:50:06;11.70;99.90
52030;DHT22;38043;53.224;6.580;2023-05-07T08:52:31;11.80;99.90
52030;DHT22;38043;53.224;6.580;2023-05-07T08:54:57;11.80;99.90
52030;DHT22;38043;53.224;6.580;2023-05-07T08:57:23;11.90;99.90
52030;DHT22;38043;53.224;6.580;2023-05-07T08:59:49;12.00;99.90
52030;DHT22;38043;53.224;6.580;2023-05-07T09:02:15;12.10;99.90
52030;DHT22;38043;53.224;6.580;2023-05-07T09:04:41;12.20;99.90
52030;DHT22;38043;53.224;6.580;2023-05-07T09:07:07;12.30;99.90
52030;DHT22;38043;53.224;6.580;2023-05-07T09:09:33;12.40;99.90
52030;DHT22;38043;53.224;6.580;2023-05-07T09:11:59;12.40;99.90
52030;DHT22;38043;53.224;6.580;2023-05-07T09:14:25;12.50;99.90
52030;DHT22;38043;53.224;6.580;2023-05-07T09:16:52;12.50;99.90
52030;DHT22;38043;53.224;6.580;2023-05-07T09:19:22;12.60;99.90
52030;DHT22;38043;53.224;6.580;2023-05-07T09:21:47;12.70;99.90
52030;DHT22;38043;53.224;6.580;2023-05-07T09:24:14;12.80;99.90
52030;DHT22;38043;53.224;6.580;2023-05-07T09:26:40;12.70;99.90
52030;DHT22;38043;53.224;6.580;2023-05-07T09:29:07;12.80;99.90
52030;DHT22;38043;53.224;6.580;2023-05-07T09:31:35;12.80;99.90
52030;DHT22;38043;53.224;6.580;2023-05-07T09:34:01;12.80;99.90
52030;DHT22;38043;53.224;6.580;2023-05-07T09:36:26;12.80;99.90
52030;DHT22;38043;53.224;6.580;2023-05-07T09:38:52;12.90;99.90
52030;DHT22;38043;53.224;6.580;2023-05-07T09:41:18;12.90;99.90
52030;DHT22;38043;53.224;6.580;2023-05-07T09:43:44;13.10;99.90
52030;DHT22;38043;53.224;6.580;2023-05-07T09:46:13;13.20;99.90
52030;DHT22;38043;53.224;6.580;2023-05-07T09:48:39;13.20;99.90
52030;DHT22;38043;53.224;6.580;2023-05-07T09:51:11;13.30;99.90
52030;DHT22;38043;53.224;6.580;2023-05-07T09:53:40;13.40;99.90
52030;DHT22;38043;53.224;6.580;2023-05-07T09:56:07;13.50;99.90
52030;DHT22;38043;53.224;6.580;2023-05-07T09:58:33;13.50;99.90
52030;DHT22;38043;53.224;6.580;2023-05-07T10:01:00;13.50;99.90
52030;DHT22;38043;53.224;6.580;2023-05-07T10:03:26;13.50;99.90
52030;DHT22;38043;53.224;6.580;2023-05-07T10:05:56;13.50;99.90
52030;DHT22;38043;53.224;6.580;2023-05-07T10:08:23;13.60;99.90
52030;DHT22;38043;53.224;6.580;2023-05-07T10:10:50;13.70;99.90
52030;DHT22;38043;53.224;6.580;2023-05-07T10:13:16;13.80;99.90
52030;DHT22;38043;53.224;6.580;2023-05-07T10:15:42;13.90;99.90
52030;DHT22;38043;53.224;6.580;2023-05-07T10:18:08;13.90;99.90
52030;DHT22;38043;53.224;6.580;2023-05-07T10:20:34;13.90;99.90
52030;DHT22;38043;53.224;6.580;2023-05-07T10:23:02;13.90;99.90
52030;DHT22;38043;53.224;6.580;2023-05-07T10:25:29;13.90;99.90
52030;DHT22;38043;53.224;6.580;2023-05-07T10:27:56;13.80;99.90
52030;DHT22;38043;53.224;6.580;2023-05-07T10:30:26;13.80;99.90
52030;DHT22;38043;53.224;6.580;2023-05-07T10:32:59;13.90;99.90
52030;DHT22;38043;53.224;6.580;2023-05-07T10:35:31;14.00;99.90
52030;DHT22;38043;53.224;6.580;2023-05-07T10:37:58;14.00;99.90
52030;DHT22;38043;53.224;6.580;2023-05-07T10:40:23;14.00;99.90
52030;DHT22;38043;53.224;6.580;2023-05-07T10:42:53;14.00;99.90
52030;DHT22;38043;53.224;6.580;2023-05-07T10:45:18;14.00;99.90
52030;DHT22;38043;53.224;6.580;2023-05-07T10:50:28;14.00;99.90
52030;DHT22;38043;53.224;6.580;2023-05-07T10:55:37;14.20;99.90
52030;DHT22;38043;53.224;6.580;2023-05-07T11:00:50;14.40;99.90
52030;DHT22;38043;53.224;6.580;2023-05-07T11:03:16;14.70;99.90
52030;DHT22;38043;53.224;6.580;2023-05-07T11:05:42;14.90;99.90
52030;DHT22;38043;53.224;6.580;2023-05-07T11:08:08;15.20;99.90
52030;DHT22;38043;53.224;6.580;2023-05-07T11:13:40;15.60;99.90
52030;DHT22;38043;53.224;6.580;2023-05-07T11:16:05;15.60;99.90
52030;DHT22;38043;53.224;6.580;2023-05-07T11:18:46;15.70;99.90
52030;DHT22;38043;53.224;6.580;2023-05-07T11:21:11;15.80;99.90
52030;DHT22;38043;53.224;6.580;2023-05-07T11:26:07;15.90;99.90
52030;DHT22;38043;53.224;6.580;2023-05-07T11:28:36;16.20;99.90
52030;DHT22;38043;53.224;6.580;2023-05-07T11:31:02;16.50;99.90
52030;DHT22;38043;53.224;6.580;2023-05-07T11:33:28;16.40;99.90
52030;DHT22;38043;53.224;6.580;2023-05-07T11:35:54;16.60;99.90
52030;DHT22;38043;53.224;6.580;2023-05-07T11:38:20;16.60;99.90
52030;DHT22;38043;53.224;6.580;2023-05-07T11:40:49;16.50;99.90
52030;DHT22;38043;53.224;6.580;2023-05-07T11:43:15;16.60;99.90
52030;DHT22;38043;53.224;6.580;2023-05-07T11:45:40;16.60;99.90
52030;DHT22;38043;53.224;6.580;2023-05-07T11:48:06;16.70;99.90
52030;DHT22;38043;53.224;6.580;2023-05-07T11:50:32;16.90;99.90
52030;DHT22;38043;53.224;6.580;2023-05-07T11:52:57;17.00;99.90
52030;DHT22;38043;53.224;6.580;2023-05-07T11:55:23;17.00;99.90
52030;DHT22;38043;53.224;6.580;2023-05-07T11:57:50;17.20;99.90
52030;DHT22;38043;53.224;6.580;2023-05-07T12:00:15;17.20;99.90
52030;DHT22;38043;53.224;6.580;2023-05-07T12:02:41;17.30;99.90
52030;DHT22;38043;53.224;6.580;2023-05-07T12:05:08;17.40;99.90
52030;DHT22;38043;53.224;6.580;2023-05-07T12:07:34;17.60;99.90
52030;DHT22;38043;53.224;6.580;2023-05-07T12:10:03;17.40;99.90
52030;DHT22;38043;53.224;6.580;2023-05-07T12:12:29;17.40;99.90
52030;DHT22;38043;53.224;6.580;2023-05-07T12:14:55;17.70;99.90
52030;DHT22;38043;53.224;6.580;2023-05-07T12:17:21;18.00;99.90
52030;DHT22;38043;53.224;6.580;2023-05-07T12:19:46;18.30;99.90
52030;DHT22;38043;53.224;6.580;2023-05-07T12:22:12;18.40;99.90
52030;DHT22;38043;53.224;6.580;2023-05-07T12:24:47;18.20;99.90
52030;DHT22;38043;53.224;6.580;2023-05-07T12:27:13;18.20;99.90
52030;DHT22;38043;53.224;6.580;2023-05-07T12:29:39;18.00;99.90
52030;DHT22;38043;53.224;6.580;2023-05-07T12:32:12;17.90;99.90
52030;DHT22;38043;53.224;6.580;2023-05-07T12:34:38;17.80;99.90
52030;DHT22;38043;53.224;6.580;2023-05-07T12:37:04;17.90;99.90
52030;DHT22;38043;53.224;6.580;2023-05-07T12:39:30;18.00;99.90
52030;DHT22;38043;53.224;6.580;2023-05-07T12:41:56;18.10;99.90
52030;DHT22;38043;53.224;6.580;2023-05-07T12:44:24;18.40;99.90
52030;DHT22;38043;53.224;6.580;2023-05-07T12:46:50;18.60;99.90
52030;DHT22;38043;53.224;6.580;2023-05-07T12:49:16;18.50;99.90
52030;DHT22;38043;53.224;6.580;2023-05-07T12:51:43;18.90;99.90
52030;DHT22;38043;53.224;6.580;2023-05-07T12:54:08;19.00;99.90
52030;DHT22;38043;53.224;6.580;2023-05-07T12:56:37;19.10;99.90
52030;DHT22;38043;53.224;6.580;2023-05-07T12:59:02;19.40;99.90
52030;DHT22;38043;53.224;6.580;2023-05-07T13:01:30;19.90;99.90
52030;DHT22;38043;53.224;6.580;2023-05-07T13:04:04;20.40;99.90
52030;DHT22;38043;53.224;6.580;2023-05-07T13:06:30;20.50;99.90
52030;DHT22;38043;53.224;6.580;2023-05-07T13:08:56;20.40;99.90
52030;DHT22;38043;53.224;6.580;2023-05-07T13:11:22;20.30;99.90
52030;DHT22;38043;53.224;6.580;2023-05-07T13:13:48;20.60;99.90
52030;DHT22;38043;53.224;6.580;2023-05-07T13:16:14;20.80;99.90
52030;DHT22;38043;53.224;6.580;2023-05-07T13:18:40;21.20;99.90
52030;DHT22;38043;53.224;6.580;2023-05-07T13:21:06;21.90;99.90
52030;DHT22;38043;53.224;6.580;2023-05-07T13:23:32;22.00;99.90
52030;DHT22;38043;53.224;6.580;2023-05-07T13:25:57;22.00;99.90
52030;DHT22;38043;53.224;6.580;2023-05-07T13:28:24;21.80;99.90
52030;DHT22;38043;53.224;6.580;2023-05-07T13:30:49;21.30;99.90
52030;DHT22;38043;53.224;6.580;2023-05-07T13:33:17;21.20;99.90
52030;DHT22;38043;53.224;6.580;2023-05-07T13:35:42;21.50;99.90
52030;DHT22;38043;53.224;6.580;2023-05-07T13:38:08;21.60;99.90
52030;DHT22;38043;53.224;6.580;2023-05-07T13:40:33;21.90;99.90
52030;DHT22;38043;53.224;6.580;2023-05-07T13:42:59;21.80;99.90
52030;DHT22;38043;53.224;6.580;2023-05-07T13:45:27;22.60;99.90
52030;DHT22;38043;53.224;6.580;2023-05-07T13:47:55;23.10;99.90
52030;DHT22;38043;53.224;6.580;2023-05-07T13:50:21;23.00;99.90
52030;DHT22;38043;53.224;6.580;2023-05-07T13:52:47;22.80;99.90
52030;DHT22;38043;53.224;6.580;2023-05-07T13:55:19;22.80;99.90
52030;DHT22;38043;53.224;6.580;2023-05-07T13:57:45;22.60;99.90
52030;DHT22;38043;53.224;6.580;2023-05-07T14:00:11;22.50;99.90
52030;DHT22;38043;53.224;6.580;2023-05-07T14:02:36;22.80;99.90
52030;DHT22;38043;53.224;6.580;2023-05-07T14:05:02;23.50;99.90
52030;DHT22;38043;53.224;6.580;2023-05-07T14:07:28;24.00;99.90
52030;DHT22;38043;53.224;6.580;2023-05-07T14:09:54;24.40;99.20
52030;DHT22;38043;53.224;6.580;2023-05-07T14:12:19;24.70;99.10
52030;DHT22;38043;53.224;6.580;2023-05-07T14:14:46;24.90;97.30
52030;DHT22;38043;53.224;6.580;2023-05-07T14:17:12;24.40;96.90
52030;DHT22;38043;53.224;6.580;2023-05-07T14:19:38;23.90;96.80
52030;DHT22;38043;53.224;6.580;2023-05-07T14:22:04;23.50;98.40
52030;DHT22;38043;53.224;6.580;2023-05-07T14:24:29;23.00;99.10
52030;DHT22;38043;53.224;6.580;2023-05-07T14:26:56;22.30;99.50
52030;DHT22;38043;53.224;6.580;2023-05-07T14:29:21;21.80;99.90
52030;DHT22;38043;53.224;6.580;2023-05-07T14:31:48;21.50;99.90
52030;DHT22;38043;53.224;6.580;2023-05-07T14:34:13;21.10;99.90
52030;DHT22;38043;53.224;6.580;2023-05-07T14:36:39;20.90;99.90
52030;DHT22;38043;53.224;6.580;2023-05-07T14:39:05;21.10;99.90
52030;DHT22;38043;53.224;6.580;2023-05-07T14:41:31;21.60;99.90
52030;DHT22;38043;53.224;6.580;2023-05-07T14:43:58;21.80;99.90
52030;DHT22;38043;53.224;6.580;2023-05-07T14:46:24;21.90;99.90
52030;DHT22;38043;53.224;6.580;2023-05-07T14:48:51;21.70;99.90
52030;DHT22;38043;53.224;6.580;2023-05-07T14:51:16;21.50;99.90
52030;DHT22;38043;53.224;6.580;2023-05-07T14:53:42;21.00;99.90
52030;DHT22;38043;53.224;6.580;2023-05-07T14:56:07;20.80;99.90
52030;DHT22;38043;53.224;6.580;2023-05-07T14:58:33;20.50;99.90
52030;DHT22;38043;53.224;6.580;2023-05-07T15:00:59;20.30;99.90
52030;DHT22;38043;53.224;6.580;2023-05-07T15:03:25;20.30;99.90
52030;DHT22;38043;53.224;6.580;2023-05-07T15:05:51;20.10;99.90
52030;DHT22;38043;53.224;6.580;2023-05-07T15:08:19;20.10;99.90
52030;DHT22;38043;53.224;6.580;2023-05-07T15:10:45;20.00;99.90
52030;DHT22;38043;53.224;6.580;2023-05-07T15:13:11;19.90;99.90
52030;DHT22;38043;53.224;6.580;2023-05-07T15:15:40;19.80;99.90
52030;DHT22;38043;53.224;6.580;2023-05-07T15:18:06;19.80;99.90
52030;DHT22;38043;53.224;6.580;2023-05-07T15:20:32;19.60;99.90
52030;DHT22;38043;53.224;6.580;2023-05-07T15:22:58;19.50;99.90
52030;DHT22;38043;53.224;6.580;2023-05-07T15:25:24;19.40;99.90
52030;DHT22;38043;53.224;6.580;2023-05-07T15:27:50;19.30;99.90
52030;DHT22;38043;53.224;6.580;2023-05-07T15:30:15;19.30;99.90
52030;DHT22;38043;53.224;6.580;2023-05-07T15:32:41;19.20;99.90
52030;DHT22;38043;53.224;6.580;2023-05-07T15:35:10;19.20;99.90
52030;DHT22;38043;53.224;6.580;2023-05-07T15:37:35;19.20;99.90